Time;durP1;ratioP1;P1;durP2;ratioP2;P2;SDS_P1;SDS_P2;PMS_P1;PMS_P2;Temp;Humidity;BMP_temperature;BMP_pressure;BME280_temperature;BME280_humidity;BME280_pressure;Samples;Min_cycle;Max_cycle;Signal;HPM_P1;HPM_P2
2022/09/04 00:00:59;;;;;;;4.83;3.70;;;16.20;99.90;;;;;;5053644;28;20416;-70
2022/09/04 00:03:49;;;;;;;4.40;4.00;;;16.10;99.90;;;;;;5052717;28;20476;-70
2022/09/04 00:06:22;;;;;;;5.43;3.83;;;16.20;99.90;;;;;;5046581;28;20197;-70
2022/09/04 00:08:57;;;;;;;3.87;3.50;;;16.10;99.90;;;;;;5046849;28;20412;-70
2022/09/04 00:11:47;;;;;;;7.07;3.87;;;16.10;99.90;;;;;;5047613;28;20851;-70
2022/09/04 00:14:21;;;;;;;5.07;4.67;;;16.10;99.90;;;;;;5052912;28;20412;-71
2022/09/04 00:17:02;;;;;;;3.93;3.60;;;16.00;99.90;;;;;;5050529;28;20506;-70
2022/09/04 00:19:42;;;;;;;3.90;3.60;;;16.00;99.90;;;;;;5037261;28;20427;-72
2022/09/04 00:22:32;;;;;;;5.93;3.60;;;16.00;99.90;;;;;;5051170;28;20850;-70
2022/09/04 00:25:06;;;;;;;3.70;3.40;;;16.00;99.90;;;;;;5049743;28;20418;-71
2022/09/04 00:27:43;;;;;;;3.50;3.20;;;16.00;99.90;;;;;;5053268;28;20421;-70
2022/09/04 00:30:13;;;;;;;8.03;4.60;;;16.00;99.90;;;;;;5050807;28;20494;-70
2022/09/04 00:32:50;;;;;;;9.00;4.17;;;16.00;99.90;;;;;;5061443;28;20438;-70
2022/09/04 00:35:30;;;;;;;3.90;3.60;;;16.00;99.90;;;;;;5050909;28;20407;-70
2022/09/04 00:38:02;;;;;;;8.20;3.73;;;15.90;99.90;;;;;;5046820;28;20899;-70
2022/09/04 00:40:40;;;;;;;3.87;3.47;;;15.90;99.90;;;;;;5053768;28;20501;-70
2022/09/04 00:43:15;;;;;;;5.50;3.77;;;15.80;99.90;;;;;;5054682;28;20419;-70
2022/09/04 00:46:07;;;;;;;9.07;4.50;;;15.80;99.90;;;;;;5055070;28;20800;-71
2022/09/04 00:48:57;;;;;;;5.00;4.50;;;15.80;99.90;;;;;;5054563;28;20427;-70
2022/09/04 00:51:45;;;;;;;9.47;4.50;;;15.70;99.90;;;;;;5051432;28;20901;-70
2022/09/04 00:54:31;;;;;;;4.23;3.83;;;15.60;99.90;;;;;;5051379;28;20506;-70
2022/09/04 00:57:18;;;;;;;6.17;5.00;;;15.60;99.90;;;;;;5048511;28;20498;-70
2022/09/04 01:00:03;;;;;;;7.87;4.50;;;15.60;99.90;;;;;;5054333;28;20407;-70
2022/09/04 02:33:21;;;;;;;4.27;3.90;;;14.50;99.90;;;;;;5058406;28;20471;-71
2022/09/04 02:35:56;;;;;;;5.03;3.30;;;14.50;99.90;;;;;;5071793;28;20411;-70
2022/09/04 02:38:57;;;;;;;5.00;3.30;;;14.50;99.90;;;;;;5070537;28;20485;-70
2022/09/04 02:41:40;;;;;;;3.33;3.03;;;14.50;99.90;;;;;;5061244;28;20953;-70
2022/09/04 02:44:23;;;;;;;4.50;3.53;;;14.50;99.90;;;;;;5065808;28;20427;-71
2022/09/04 02:46:59;;;;;;;8.00;3.30;;;14.40;99.90;;;;;;5056399;28;20415;-70
2022/09/04 02:49:54;;;;;;;7.30;3.20;;;14.40;99.90;;;;;;5056774;28;20422;-71
2022/09/04 02:52:38;;;;;;;4.20;3.50;;;14.40;99.90;;;;;;5067506;28;20517;-71
2022/09/04 02:55:22;;;;;;;3.87;3.47;;;14.30;99.90;;;;;;5059324;28;20414;-71
2022/09/04 02:58:06;;;;;;;2.97;2.53;;;14.30;99.90;;;;;;5057655;28;20533;-70
2022/09/04 03:01:03;;;;;;;3.73;3.03;;;14.30;99.90;;;;;;5066199;28;20941;-70
2022/09/04 03:03:48;;;;;;;3.83;3.43;;;14.30;99.90;;;;;;5058423;28;20435;-70
2022/09/04 03:06:21;;;;;;;3.50;2.90;;;14.30;99.90;;;;;;5060953;28;20420;-70
2022/09/04 03:09:04;;;;;;;2.90;2.57;;;14.20;99.90;;;;;;5060387;28;20495;-70
2022/09/04 03:11:32;;;;;;;3.50;3.00;;;14.20;99.90;;;;;;5063070;28;20435;-70
2022/09/04 03:14:27;;;;;;;4.80;2.73;;;14.10;99.90;;;;;;5063993;28;20506;-70
2022/09/04 03:17:00;;;;;;;5.90;3.20;;;14.10;99.90;;;;;;5056812;28;20931;-72
2022/09/04 03:19:42;;;;;;;6.73;2.80;;;14.10;99.90;;;;;;5056859;28;20432;-71
2022/09/04 03:22:39;;;;;;;4.37;3.10;;;14.10;99.90;;;;;;5058123;28;20439;-71
2022/09/04 03:25:32;;;;;;;3.93;3.30;;;14.10;99.90;;;;;;5055262;28;20446;-71
2022/09/04 03:27:57;;;;;;;5.63;3.40;;;14.10;99.90;;;;;;5059142;28;20850;-71
2022/09/04 03:30:24;;;;;;;2.93;2.73;;;14.10;99.90;;;;;;5061397;28;20419;-71
2022/09/04 03:33:04;;;;;;;4.50;3.03;;;14.00;99.90;;;;;;5056181;28;20228;-71
2022/09/04 03:35:55;;;;;;;4.50;3.37;;;14.00;99.90;;;;;;5067212;28;20525;-72
2022/09/04 03:38:45;;;;;;;5.53;2.87;;;14.00;99.90;;;;;;5060192;28;20459;-71
2022/09/04 03:41:38;;;;;;;3.37;3.17;;;14.00;99.90;;;;;;5061536;28;20442;-71
2022/09/04 03:44:17;;;;;;;3.03;2.83;;;13.90;99.90;;;;;;5063941;28;20415;-70
2022/09/04 03:46:57;;;;;;;4.10;3.47;;;13.90;99.90;;;;;;5060327;28;20948;-70
2022/09/04 03:49:52;;;;;;;3.90;3.50;;;13.90;99.90;;;;;;5068332;28;20454;-71
2022/09/04 03:52:22;;;;;;;6.73;2.90;;;13.90;99.90;;;;;;5037016;28;21018;-71
2022/09/04 03:55:12;;;;;;;3.83;3.50;;;13.80;99.90;;;;;;5057790;28;20427;-71
2022/09/04 03:58:19;;;;;;;10.60;3.93;;;13.80;99.90;;;;;;5055209;28;21041;-70
2022/09/04 04:01:08;;;;;;;3.50;3.20;;;13.80;99.90;;;;;;5064685;28;20435;-70
2022/09/04 04:04:07;;;;;;;3.50;3.30;;;13.80;99.90;;;;;;5061363;28;20410;-71
2022/09/04 04:06:44;;;;;;;3.43;3.23;;;13.80;99.90;;;;;;5058366;28;20408;-70
2022/09/04 04:09:36;;;;;;;3.93;3.53;;;13.70;99.90;;;;;;5063320;28;20462;-70
2022/09/04 04:12:29;;;;;;;3.20;3.00;;;13.70;99.90;;;;;;5056595;28;20436;-70
2022/09/04 04:15:25;;;;;;;6.00;3.23;;;13.70;99.90;;;;;;5058416;28;20947;-70
2022/09/04 04:18:30;;;;;;;4.23;3.93;;;13.60;99.90;;;;;;5054397;28;20463;-71
2022/09/04 04:21:26;;;;;;;4.80;3.23;;;13.60;99.90;;;;;;5058382;28;20435;-70
2022/09/04 04:24:06;;;;;;;3.50;3.20;;;13.60;99.90;;;;;;5060524;28;20937;-70
2022/09/04 04:26:48;;;;;;;3.43;3.13;;;13.60;99.90;;;;;;5053801;28;20447;-70
2022/09/04 04:29:48;;;;;;;3.67;3.37;;;13.60;99.90;;;;;;5062775;28;20414;-71
2022/09/04 04:32:42;;;;;;;4.00;3.60;;;13.60;99.90;;;;;;5065639;28;20473;-71
2022/09/04 04:35:16;;;;;;;6.30;3.90;;;13.50;99.90;;;;;;5060878;28;20431;-70
2022/09/04 04:38:05;;;;;;;4.20;3.80;;;13.50;99.90;;;;;;5055561;28;20447;-71
2022/09/04 04:40:46;;;;;;;4.93;3.90;;;13.50;99.90;;;;;;5066005;28;20418;-70
2022/09/04 04:43:12;;;;;;;3.30;2.93;;;13.50;99.90;;;;;;5059163;28;20426;-71
2022/09/04 04:45:59;;;;;;;3.90;3.23;;;13.50;99.90;;;;;;5055057;28;20447;-71
2022/09/04 04:48:39;;;;;;;4.93;3.40;;;13.50;99.90;;;;;;5066931;28;20457;-71
2022/09/04 04:51:30;;;;;;;7.93;4.00;;;13.50;99.90;;;;;;5056991;28;20434;-71
2022/09/04 04:54:14;;;;;;;5.17;3.80;;;13.50;99.90;;;;;;5059320;28;20942;-70
2022/09/04 04:56:52;;;;;;;5.10;3.27;;;13.50;99.90;;;;;;5062510;28;20421;-70
2022/09/04 04:59:43;;;;;;;3.63;3.20;;;13.50;99.90;;;;;;5059589;28;20545;-71
2022/09/04 05:02:40;;;;;;;4.93;3.43;;;13.40;99.90;;;;;;5062810;28;20999;-70
2022/09/04 05:05:16;;;;;;;3.77;3.07;;;13.50;99.90;;;;;;5065161;28;20414;-71
2022/09/04 05:07:51;;;;;;;4.90;3.87;;;13.50;99.90;;;;;;5059586;28;20423;-70
2022/09/04 05:10:40;;;;;;;4.20;3.90;;;13.50;99.90;;;;;;5066253;28;20410;-71
2022/09/04 05:13:24;;;;;;;3.73;3.43;;;13.50;99.90;;;;;;5059656;28;20471;-71
2022/09/04 05:15:49;;;;;;;4.60;4.20;;;13.50;99.90;;;;;;5055209;28;20414;-71
2022/09/04 05:18:34;;;;;;;4.03;3.40;;;13.60;99.90;;;;;;5056331;28;20459;-71
2022/09/04 05:21:12;;;;;;;6.20;3.90;;;13.60;99.90;;;;;;5056098;28;20286;-71
2022/09/04 05:24:07;;;;;;;4.30;3.90;;;13.60;99.90;;;;;;5055960;28;20415;-71
2022/09/04 05:26:45;;;;;;;8.00;3.33;;;13.70;99.90;;;;;;5067073;28;20469;-71
2022/09/04 05:29:34;;;;;;;3.90;3.47;;;13.80;99.90;;;;;;5062466;28;20939;-70
2022/09/04 05:32:30;;;;;;;4.00;3.60;;;14.00;99.90;;;;;;5063624;28;20458;-71
2022/09/04 05:35:05;;;;;;;3.20;3.00;;;14.10;99.90;;;;;;5061721;28;20920;-71
2022/09/04 05:38:19;;;;;;;4.17;3.83;;;14.30;99.90;;;;;;5066338;28;20457;-71
2022/09/04 05:40:56;;;;;;;4.23;3.50;;;14.40;99.90;;;;;;5068719;28;20485;-70
2022/09/04 05:43:52;;;;;;;4.07;3.77;;;14.50;99.90;;;;;;5069181;28;20487;-71
2022/09/04 05:46:36;;;;;;;5.73;3.40;;;14.60;99.90;;;;;;5063289;28;20787;-70
2022/09/04 05:49:14;;;;;;;3.83;2.83;;;14.80;99.90;;;;;;5060990;28;20427;-71
2022/09/04 05:52:10;;;;;;;4.40;4.00;;;14.90;99.90;;;;;;5069661;28;20456;-71
2022/09/04 05:54:45;;;;;;;6.20;3.83;;;15.10;99.90;;;;;;5065251;28;20841;-71
2022/09/04 05:57:43;;;;;;;3.17;2.93;;;15.30;99.90;;;;;;5061796;28;20419;-72
2022/09/04 06:00:11;;;;;;;3.13;2.83;;;15.60;99.90;;;;;;5062714;28;20419;-70
2022/09/04 06:02:55;;;;;;;3.40;3.20;;;15.80;99.90;;;;;;5063701;28;20457;-71
2022/09/04 06:05:38;;;;;;;4.63;3.60;;;16.00;99.90;;;;;;5059520;28;20997;-71
2022/09/04 06:08:29;;;;;;;6.43;3.33;;;16.20;99.90;;;;;;5058676;28;20534;-71
2022/09/04 06:11:32;;;;;;;4.93;3.67;;;16.40;99.90;;;;;;5060505;28;20435;-70
2022/09/04 06:14:34;;;;;;;3.00;2.77;;;16.80;99.90;;;;;;5058365;28;20433;-70
2022/09/04 06:17:12;;;;;;;4.93;4.00;;;17.50;99.90;;;;;;5062187;28;20454;-71
2022/09/04 06:19:53;;;;;;;3.23;3.03;;;18.20;99.90;;;;;;5062543;28;20474;-71
2022/09/04 06:22:48;;;;;;;3.83;3.57;;;18.80;99.90;;;;;;5064958;28;20422;-70
2022/09/04 06:25:38;;;;;;;2.93;2.73;;;19.30;99.90;;;;;;5068538;28;20411;-70
2022/09/04 06:28:15;;;;;;;3.30;2.70;;;19.70;99.90;;;;;;5058816;28;20427;-71
2022/09/04 06:31:02;;;;;;;4.00;3.40;;;19.90;99.90;;;;;;5063515;28;20410;-71
2022/09/04 06:33:34;;;;;;;3.10;2.80;;;20.20;99.90;;;;;;5070507;28;20935;-70
2022/09/04 06:36:23;;;;;;;3.83;3.40;;;20.50;99.90;;;;;;5058412;28;20416;-70
2022/09/04 06:39:42;;;;;;;5.40;3.03;;;20.90;99.90;;;;;;5057659;28;20469;-71
2022/09/04 06:42:44;;;;;;;3.30;2.90;;;21.20;99.90;;;;;;5061979;28;20478;-71
2022/09/04 06:46:07;;;;;;;3.73;3.40;;;21.30;99.90;;;;;;5064520;28;20756;-70
2022/09/04 06:48:57;;;;;;;6.10;2.97;;;21.60;99.90;;;;;;5028649;28;20417;-71
2022/09/04 06:51:31;;;;;;;3.00;2.80;;;21.80;99.90;;;;;;5066432;28;20431;-70
2022/09/04 06:54:14;;;;;;;3.80;3.10;;;21.90;99.90;;;;;;5066869;28;20416;-70
2022/09/04 06:56:54;;;;;;;3.20;2.93;;;22.10;99.90;;;;;;5059130;28;21050;-72
2022/09/04 06:59:37;;;;;;;6.87;2.60;;;22.30;99.90;;;;;;5059507;28;20524;-72
2022/09/04 07:02:27;;;;;;;3.63;2.50;;;22.60;99.90;;;;;;5057789;28;20971;-72
2022/09/04 07:05:16;;;;;;;3.60;2.70;;;22.80;99.90;;;;;;5065411;28;20505;-72
2022/09/04 07:08:07;;;;;;;3.50;2.70;;;23.10;99.90;;;;;;5059584;28;20508;-72
2022/09/04 07:10:42;;;;;;;2.33;2.20;;;23.30;99.90;;;;;;5068307;28;20868;-71
2022/09/04 07:13:27;;;;;;;4.90;2.63;;;23.40;99.90;;;;;;5066093;28;20950;-71
2022/09/04 07:16:14;;;;;;;2.80;2.60;;;23.80;99.90;;;;;;5063685;28;20833;-70
2022/09/04 07:18:55;;;;;;;3.50;3.30;;;24.00;99.90;;;;;;5063105;28;20484;-71
2022/09/04 07:21:29;;;;;;;3.53;2.57;;;24.30;99.90;;;;;;5059875;28;20998;-72
2022/09/04 07:24:07;;;;;;;2.60;2.03;;;24.60;99.90;;;;;;5059359;28;21022;-71
2022/09/04 07:27:19;;;;;;;9.93;2.83;;;24.70;99.90;;;;;;5060813;28;20483;-74
2022/09/04 07:30:02;;;;;;;2.50;2.33;;;24.90;99.90;;;;;;4999140;28;20430;-72
2022/09/04 07:32:39;;;;;;;2.63;2.30;;;25.10;99.90;;;;;;4997190;28;20474;-72
2022/09/04 07:35:31;;;;;;;2.37;2.27;;;25.30;99.90;;;;;;5041244;28;20442;-71
2022/09/04 07:38:31;;;;;;;2.07;1.97;;;25.60;99.90;;;;;;5060232;28;20468;-72
2022/09/04 07:41:13;;;;;;;3.00;2.80;;;25.70;99.90;;;;;;5060338;28;20451;-71
2022/09/04 07:43:46;;;;;;;2.50;2.40;;;25.70;99.90;;;;;;5061438;28;20467;-73
2022/09/04 07:46:21;;;;;;;2.67;2.50;;;25.80;99.90;;;;;;5063615;28;20438;-72
2022/09/04 07:49:15;;;;;;;8.00;2.50;;;25.80;99.90;;;;;;5060616;28;20442;-73
2022/09/04 07:51:56;;;;;;;4.90;2.87;;;25.90;99.90;;;;;;5067998;28;20439;-72
2022/09/04 07:54:52;;;;;;;3.40;2.43;;;25.90;99.90;;;;;;5061367;28;20506;-72
2022/09/04 07:57:24;;;;;;;3.00;2.73;;;26.20;99.90;;;;;;5062287;28;20447;-71
2022/09/04 08:00:21;;;;;;;2.83;2.47;;;26.20;99.90;;;;;;5058646;28;20811;-72
2022/09/04 08:03:00;;;;;;;2.20;2.00;;;26.20;99.90;;;;;;5054243;28;20879;-71
2022/09/04 08:06:12;;;;;;;2.07;1.97;;;26.60;99.90;;;;;;5058322;28;20913;-71
2022/09/04 08:09:00;;;;;;;2.90;1.70;;;26.90;99.90;;;;;;5030946;28;21002;-74
2022/09/04 08:11:37;;;;;;;4.10;1.30;;;27.30;99.90;;;;;;5066692;28;20455;-72
2022/09/04 08:14:26;;;;;;;1.60;1.50;;;27.50;99.90;;;;;;5055662;28;21033;-74
2022/09/04 08:17:24;;;;;;;4.30;1.50;;;27.30;99.90;;;;;;5049651;28;20483;-72
2022/09/04 08:20:11;;;;;;;1.57;1.47;;;27.60;99.90;;;;;;5057852;28;20451;-73
2022/09/04 08:23:23;;;;;;;1.97;1.80;;;27.50;99.90;;;;;;5061957;28;20516;-74
2022/09/04 08:26:02;;;;;;;4.20;1.23;;;27.60;99.90;;;;;;5005442;28;20496;-71
2022/09/04 08:28:56;;;;;;;1.30;1.00;;;27.80;99.90;;;;;;5061105;28;20450;-71
2022/09/04 08:31:50;;;;;;;1.57;1.47;;;28.00;99.90;;;;;;5058539;28;20467;-72
2022/09/04 08:34:30;;;;;;;1.53;1.43;;;27.90;99.90;;;;;;5067039;28;20439;-72
2022/09/04 08:37:23;;;;;;;1.40;1.30;;;27.90;99.90;;;;;;5058125;28;20432;-72
2022/09/04 08:39:54;;;;;;;1.80;1.70;;;28.20;99.90;;;;;;5057976;28;20816;-73
2022/09/04 08:42:40;;;;;;;1.40;1.30;;;28.00;99.90;;;;;;5064503;28;20479;-73
2022/09/04 08:45:37;;;;;;;1.40;1.27;;;28.10;99.90;;;;;;5059246;28;20437;-72
2022/09/04 08:48:40;;;;;;;4.10;1.50;;;28.90;99.90;;;;;;5063733;28;20455;-72
2022/09/04 08:51:39;;;;;;;1.60;1.10;;;29.70;99.90;;;;;;5066031;28;20442;-72
2022/09/04 08:54:32;;;;;;;2.33;1.30;;;30.20;99.90;;;;;;5062648;28;21061;-69
2022/09/04 08:57:21;;;;;;;1.00;1.00;;;30.20;99.90;;;;;;5058702;28;20452;-70
2022/09/04 09:00:19;;;;;;;5.37;1.53;;;30.30;99.90;;;;;;5035190;28;20455;-68
2022/09/04 09:03:03;;;;;;;2.73;1.50;;;30.70;99.90;;;;;;5062243;28;20496;-69
2022/09/04 09:05:59;;;;;;;0.80;0.80;;;30.80;99.90;;;;;;5070933;28;20423;-70
2022/09/04 09:08:53;;;;;;;2.20;1.00;;;31.10;99.90;;;;;;5064694;28;20860;-67
2022/09/04 09:11:49;;;;;;;1.80;1.00;;;31.30;99.90;;;;;;5062546;28;20443;-70
2022/09/04 09:14:46;;;;;;;1.00;1.00;;;31.10;99.90;;;;;;5071438;28;20477;-68
2022/09/04 09:17:18;;;;;;;1.17;1.07;;;31.00;99.90;;;;;;5062439;28;20444;-68
2022/09/04 09:19:59;;;;;;;1.10;1.10;;;31.30;99.90;;;;;;5064417;28;20470;-69
2022/09/04 09:22:37;;;;;;;2.83;1.57;;;31.10;99.90;;;;;;5069479;28;20438;-69
2022/09/04 09:25:19;;;;;;;3.57;0.90;;;31.20;99.90;;;;;;5066695;28;20451;-71
2022/09/04 09:28:22;;;;;;;1.90;0.80;;;31.00;99.90;;;;;;5065500;28;20467;-70
2022/09/04 09:31:06;;;;;;;2.53;1.10;;;31.30;99.90;;;;;;5061952;28;20496;-70
2022/09/04 09:33:59;;;;;;;1.20;1.10;;;31.70;99.90;;;;;;5068178;28;20438;-70
2022/09/04 09:36:52;;;;;;;2.03;0.90;;;32.50;99.90;;;;;;5071243;28;20799;-70
2022/09/04 09:39:48;;;;;;;2.10;1.13;;;32.90;99.90;;;;;;5065390;28;20469;-70
2022/09/04 09:42:48;;;;;;;3.00;1.00;;;33.10;99.90;;;;;;5070535;28;20530;-70
2022/09/04 09:45:56;;;;;;;0.90;0.90;;;32.90;99.90;;;;;;5055964;28;20407;-70
2022/09/04 09:48:56;;;;;;;1.07;1.00;;;32.70;99.90;;;;;;5052306;28;20427;-71
2022/09/04 09:51:56;;;;;;;1.40;1.30;;;32.70;99.90;;;;;;5064133;28;20445;-71
2022/09/04 09:54:30;;;;;;;1.80;1.00;;;33.00;99.90;;;;;;5070468;28;20407;-70
2022/09/04 09:57:23;;;;;;;1.67;1.17;;;33.10;99.90;;;;;;5060309;28;20415;-72
2022/09/04 09:59:52;;;;;;;1.53;1.10;;;33.30;99.90;;;;;;5052827;28;20428;-69
2022/09/04 10:02:34;;;;;;;2.60;1.00;;;32.40;99.90;;;;;;5053292;28;20451;-70
2022/09/04 10:05:24;;;;;;;1.57;0.90;;;31.50;99.90;;;;;;5053652;28;20943;-69
2022/09/04 10:08:09;;;;;;;0.97;0.90;;;31.70;99.90;;;;;;5053370;28;20993;-68
2022/09/04 10:10:53;;;;;;;1.23;1.00;;;31.20;99.90;;;;;;5053136;28;20776;-67
2022/09/04 10:13:33;;;;;;;1.70;1.00;;;30.20;99.90;;;;;;5055310;28;20399;-69
2022/09/04 10:16:37;;;;;;;1.20;0.77;;;29.30;99.90;;;;;;5069117;28;20836;-69
2022/09/04 10:19:21;;;;;;;2.57;1.27;;;28.40;99.90;;;;;;5070044;28;20470;-69
2022/09/04 10:22:07;;;;;;;1.17;1.07;;;28.20;99.90;;;;;;5073174;28;20435;-69
2022/09/04 10:25:02;;;;;;;1.00;0.90;;;28.40;99.90;;;;;;5073142;28;20417;-69
2022/09/04 10:27:58;;;;;;;1.10;1.00;;;29.20;99.90;;;;;;5073468;28;20496;-69
2022/09/04 10:30:48;;;;;;;2.80;1.00;;;30.10;99.90;;;;;;5072953;28;20820;-68
2022/09/04 10:33:59;;;;;;;2.07;1.27;;;30.70;99.90;;;;;;5072702;28;20465;-69
2022/09/04 10:36:39;;;;;;;1.10;1.00;;;31.60;99.90;;;;;;5071049;28;20771;-69
2022/09/04 10:42:43;;;;;;;1.90;1.03;;;30.40;99.90;;;;;;5049615;28;20985;-70
2022/09/04 10:45:31;;;;;;;1.93;1.10;;;29.30;99.90;;;;;;5060835;28;20422;-69
2022/09/04 10:48:21;;;;;;;1.33;1.23;;;28.60;99.90;;;;;;5061148;28;20938;-70
2022/09/04 10:51:11;;;;;;;2.00;1.17;;;28.30;99.90;;;;;;5067236;28;20478;-70
2022/09/04 10:53:51;;;;;;;1.00;1.00;;;28.40;99.90;;;;;;5054505;28;20415;-69
2022/09/04 10:56:21;;;;;;;1.30;1.20;;;28.30;99.90;;;;;;5071192;28;20506;-69
2022/09/04 10:59:02;;;;;;;1.10;1.10;;;28.30;99.90;;;;;;5073472;28;20466;-72
2022/09/04 11:02:00;;;;;;;1.53;1.10;;;28.00;99.90;;;;;;5069302;28;20814;-71
2022/09/04 11:04:52;;;;;;;2.77;1.03;;;27.70;99.90;;;;;;5059160;28;20419;-72
2022/09/04 11:07:50;;;;;;;1.50;1.20;;;27.50;99.90;;;;;;5058367;28;20530;-70
2022/09/04 11:10:32;;;;;;;0.80;0.80;;;27.30;99.90;;;;;;5066421;28;20791;-68
2022/09/04 11:13:25;;;;;;;2.93;1.47;;;26.80;99.90;;;;;;5065442;28;20445;-69
2022/09/04 11:16:10;;;;;;;1.43;1.30;;;26.50;99.90;;;;;;5068395;28;20411;-69
2022/09/04 11:19:09;;;;;;;1.40;1.13;;;27.20;99.90;;;;;;5072659;28;20465;-72
2022/09/04 11:22:03;;;;;;;1.30;1.23;;;27.60;99.90;;;;;;5062123;28;20538;-69
2022/09/04 11:24:48;;;;;;;0.90;0.90;;;28.50;99.90;;;;;;5071823;28;20415;-70
2022/09/04 11:27:44;;;;;;;1.27;1.00;;;29.10;99.90;;;;;;5072543;28;20492;-69
2022/09/04 11:30:18;;;;;;;1.20;1.20;;;29.40;99.90;;;;;;5071656;28;20410;-70
2022/09/04 11:33:37;;;;;;;2.70;0.80;;;29.30;99.90;;;;;;5058189;28;20446;-70
2022/09/04 11:36:11;;;;;;;3.43;1.13;;;29.70;99.90;;;;;;5044170;28;20851;-70
2022/09/04 11:39:13;;;;;;;1.37;1.00;;;29.60;99.90;;;;;;5063654;28;20489;-70
2022/09/04 11:42:02;;;;;;;2.80;1.00;;;29.50;99.90;;;;;;5051577;28;20447;-70
2022/09/04 11:44:31;;;;;;;1.20;1.07;;;29.80;99.90;;;;;;5051701;28;20411;-71
2022/09/04 11:47:23;;;;;;;1.03;0.90;;;29.90;99.90;;;;;;5051698;28;20444;-71
2022/09/04 11:49:58;;;;;;;1.27;1.00;;;29.60;99.90;;;;;;5059564;28;20930;-70
2022/09/04 11:52:33;;;;;;;1.77;1.03;;;29.20;99.90;;;;;;5056425;28;20431;-70
2022/09/04 11:55:35;;;;;;;1.10;1.00;;;28.50;99.90;;;;;;5051745;28;20927;-70
2022/09/04 11:58:35;;;;;;;1.27;1.13;;;28.30;99.90;;;;;;5051514;28;20512;-70
2022/09/04 12:01:31;;;;;;;0.90;0.80;;;27.80;99.90;;;;;;5051214;28;20462;-72
2022/09/04 12:04:27;;;;;;;0.83;0.83;;;27.30;99.90;;;;;;5052090;28;20499;-70
2022/09/04 12:07:24;;;;;;;2.37;1.03;;;27.20;99.90;;;;;;5071601;28;20415;-70
2022/09/04 12:10:13;;;;;;;1.20;1.20;;;26.80;99.90;;;;;;5059314;28;20517;-70
2022/09/04 12:12:57;;;;;;;1.30;0.97;;;26.60;99.90;;;;;;5054105;28;20527;-70
2022/09/04 12:15:34;;;;;;;1.77;0.93;;;26.50;99.90;;;;;;5064230;28;20415;-70
2022/09/04 12:18:32;;;;;;;1.57;0.93;;;26.20;99.90;;;;;;5051299;28;20459;-71
2022/09/04 12:21:36;;;;;;;0.93;0.93;;;26.00;99.90;;;;;;5051609;28;20447;-70
2022/09/04 12:24:20;;;;;;;2.70;1.30;;;26.00;99.90;;;;;;5053313;28;21047;-70
2022/09/04 12:27:04;;;;;;;1.73;1.30;;;26.10;99.90;;;;;;5070592;28;20779;-71
2022/09/04 12:29:37;;;;;;;2.20;0.90;;;26.10;99.90;;;;;;5051878;28;20920;-71
2022/09/04 12:32:19;;;;;;;1.47;0.90;;;26.00;99.90;;;;;;5064227;28;20447;-70
2022/09/04 12:35:08;;;;;;;1.10;0.90;;;26.00;99.90;;;;;;5054011;28;20399;-71
2022/09/04 12:37:52;;;;;;;1.60;1.13;;;25.90;99.90;;;;;;5051548;28;20435;-71
2022/09/04 12:40:30;;;;;;;1.30;1.20;;;26.00;99.90;;;;;;5075594;28;20518;-70
2022/09/04 12:43:15;;;;;;;1.87;1.10;;;26.10;99.90;;;;;;5075845;28;20428;-72
2022/09/04 12:46:11;;;;;;;0.90;0.87;;;26.20;99.90;;;;;;5073058;28;20848;-69
2022/09/04 12:49:08;;;;;;;3.70;0.90;;;26.30;99.90;;;;;;5064076;28;20836;-70
2022/09/04 12:52:17;;;;;;;0.93;0.90;;;26.40;99.90;;;;;;5064738;28;20795;-71
2022/09/04 12:55:02;;;;;;;1.00;1.00;;;26.60;99.90;;;;;;5049463;28;20439;-71
2022/09/04 12:58:10;;;;;;;1.13;1.03;;;26.60;99.90;;;;;;5054859;28;20959;-71
2022/09/04 13:00:49;;;;;;;1.00;0.90;;;26.60;99.90;;;;;;5054862;28;20498;-68
2022/09/04 13:03:36;;;;;;;1.10;1.00;;;26.60;99.90;;;;;;5064702;28;20449;-71
2022/09/04 13:06:24;;;;;;;1.00;1.00;;;26.50;99.90;;;;;;5056304;28;20407;-71
2022/09/04 13:09:00;;;;;;;1.83;1.00;;;26.50;99.90;;;;;;5056559;28;20418;-70
2022/09/04 13:11:57;;;;;;;4.20;1.00;;;26.60;99.90;;;;;;5066232;28;20435;-70
2022/09/04 13:15:01;;;;;;;1.20;1.00;;;26.30;99.90;;;;;;5054729;28;20454;-70
2022/09/04 13:18:02;;;;;;;1.43;0.90;;;26.20;99.90;;;;;;5055290;28;20441;-68
2022/09/04 13:20:55;;;;;;;1.87;1.13;;;26.20;99.90;;;;;;5045794;28;20516;-70
2022/09/04 13:23:41;;;;;;;1.17;1.07;;;26.00;99.90;;;;;;5066347;28;20415;-71
2022/09/04 13:26:29;;;;;;;1.30;1.20;;;26.00;99.90;;;;;;5073906;28;20407;-72
2022/09/04 13:29:25;;;;;;;1.00;1.00;;;26.00;99.90;;;;;;5074424;28;20939;-71
2022/09/04 13:32:21;;;;;;;2.20;2.00;;;26.00;99.90;;;;;;5060438;28;20451;-71
2022/09/04 13:35:08;;;;;;;1.13;1.03;;;26.00;99.90;;;;;;5074877;28;20415;-72
2022/09/04 13:38:14;;;;;;;1.27;1.00;;;26.00;99.90;;;;;;5074661;28;20415;-72
2022/09/04 13:41:09;;;;;;;1.20;1.10;;;26.10;99.90;;;;;;5043943;28;20441;-71
2022/09/04 13:44:04;;;;;;;1.47;1.37;;;26.10;99.90;;;;;;5074254;28;20472;-71
2022/09/04 13:46:35;;;;;;;2.03;1.00;;;25.90;99.90;;;;;;5087220;28;20435;-70
2022/09/04 13:49:17;;;;;;;1.30;1.13;;;25.90;99.90;;;;;;5062258;28;20528;-73
2022/09/04 13:51:50;;;;;;;1.10;1.00;;;25.80;99.90;;;;;;5053995;28;20436;-71
2022/09/04 13:54:24;;;;;;;2.93;1.50;;;25.90;99.90;;;;;;5053949;28;20842;-70
2022/09/04 13:57:03;;;;;;;1.00;1.00;;;26.00;99.90;;;;;;5053654;28;20427;-70
2022/09/04 13:59:29;;;;;;;1.00;1.00;;;26.00;99.90;;;;;;5055153;28;20942;-71
2022/09/04 14:02:01;;;;;;;0.97;0.97;;;26.00;99.90;;;;;;5073762;28;20201;-71
2022/09/04 14:04:28;;;;;;;2.00;1.03;;;25.90;99.90;;;;;;5058067;28;20211;-71
2022/09/04 14:07:01;;;;;;;1.30;1.27;;;25.90;99.90;;;;;;5052814;28;20488;-72
2022/09/04 14:09:30;;;;;;;2.90;1.10;;;25.90;99.90;;;;;;5053514;28;20228;-71
2022/09/04 14:12:30;;;;;;;0.90;0.90;;;25.90;99.90;;;;;;5062123;28;20474;-71
2022/09/04 14:15:21;;;;;;;1.10;1.00;;;25.80;99.90;;;;;;5073374;28;20415;-71
2022/09/04 14:18:15;;;;;;;1.93;1.13;;;25.70;99.90;;;;;;5057538;28;20440;-72
2022/09/04 14:20:58;;;;;;;1.33;1.23;;;25.80;99.90;;;;;;5053212;28;20511;-71
2022/09/04 14:23:32;;;;;;;1.30;1.10;;;25.70;99.90;;;;;;5053510;28;20418;-71
2022/09/04 14:26:23;;;;;;;2.30;1.37;;;25.60;99.90;;;;;;5054336;28;20427;-71
2022/09/04 14:29:09;;;;;;;0.90;0.90;;;25.50;99.90;;;;;;5073265;28;20504;-71
2022/09/04 14:31:51;;;;;;;2.00;1.90;;;25.40;99.90;;;;;;5052916;28;20455;-71
2022/09/04 14:34:37;;;;;;;1.80;1.13;;;25.50;99.90;;;;;;5052823;28;20502;-71
2022/09/04 14:37:09;;;;;;;1.33;1.23;;;25.70;99.90;;;;;;5052973;28;20493;-72
2022/09/04 14:39:47;;;;;;;1.37;1.27;;;25.70;99.90;;;;;;5052982;28;20451;-72
2022/09/04 14:42:44;;;;;;;1.63;1.00;;;25.60;99.90;;;;;;5052587;28;20443;-71
2022/09/04 14:45:27;;;;;;;1.33;1.20;;;25.80;99.90;;;;;;5044147;28;20428;-71
2022/09/04 14:48:08;;;;;;;1.23;1.23;;;25.70;99.90;;;;;;5066561;28;20787;-71
2022/09/04 14:50:47;;;;;;;2.97;1.23;;;25.70;99.90;;;;;;5064506;28;20497;-68
2022/09/04 14:53:21;;;;;;;1.43;0.90;;;25.70;99.90;;;;;;5072534;28;20423;-71
2022/09/04 14:56:06;;;;;;;1.23;0.93;;;25.70;99.90;;;;;;5073507;28;20540;-72
2022/09/04 14:58:36;;;;;;;0.90;0.90;;;25.60;99.90;;;;;;5072287;28;20474;-71
2022/09/04 15:01:20;;;;;;;1.73;1.20;;;25.60;99.90;;;;;;5073278;28;20896;-70
2022/09/04 15:04:05;;;;;;;2.40;1.03;;;25.60;99.90;;;;;;5073113;28;20419;-70
2022/09/04 15:06:43;;;;;;;1.30;1.10;;;25.60;99.90;;;;;;5073012;28;20430;-73
2022/09/04 15:09:39;;;;;;;2.60;1.10;;;25.50;99.90;;;;;;5072469;28;20448;-71
2022/09/04 15:12:23;;;;;;;1.17;1.10;;;25.50;99.90;;;;;;5072376;28;20437;-69
2022/09/04 15:15:12;;;;;;;3.40;1.43;;;25.50;99.90;;;;;;5072323;28;20438;-70
2022/09/04 15:17:47;;;;;;;3.47;1.83;;;25.50;99.90;;;;;;5061245;28;20423;-70
2022/09/04 15:20:21;;;;;;;2.30;1.57;;;25.50;99.90;;;;;;5072100;28;20830;-69
2022/09/04 15:22:57;;;;;;;1.57;1.20;;;25.50;99.90;;;;;;5072485;28;20935;-68
2022/09/04 15:25:44;;;;;;;1.47;1.00;;;25.50;99.90;;;;;;5071501;28;20501;-71
2022/09/04 15:28:18;;;;;;;1.80;1.30;;;25.40;99.90;;;;;;5052137;28;20420;-70
2022/09/04 15:31:16;;;;;;;1.80;1.07;;;25.40;99.90;;;;;;5052002;28;20430;-70
2022/09/04 15:33:44;;;;;;;1.43;1.33;;;25.30;99.90;;;;;;5052287;28;20482;-71
2022/09/04 15:36:17;;;;;;;1.40;1.30;;;25.30;99.90;;;;;;5069187;28;20429;-72
2022/09/04 15:38:54;;;;;;;1.20;1.10;;;25.30;99.90;;;;;;5072116;28;20462;-69
2022/09/04 15:41:38;;;;;;;1.43;1.20;;;25.40;99.90;;;;;;5071329;28;20958;-70
2022/09/04 15:44:30;;;;;;;4.57;1.17;;;25.30;99.90;;;;;;5071338;28;20790;-69
2022/09/04 15:47:03;;;;;;;3.50;1.30;;;25.30;99.90;;;;;;5062372;28;20422;-70
2022/09/04 15:50:09;;;;;;;1.70;1.60;;;25.20;99.90;;;;;;5053905;28;20415;-70
2022/09/04 15:52:43;;;;;;;4.83;1.20;;;25.20;99.90;;;;;;5029128;28;20465;-71
2022/09/04 15:55:29;;;;;;;1.20;1.20;;;25.20;99.90;;;;;;5059624;28;20423;-68
2022/09/04 15:58:13;;;;;;;1.90;1.30;;;25.20;99.90;;;;;;5071897;28;20458;-71
2022/09/04 16:01:02;;;;;;;1.27;1.17;;;25.10;99.90;;;;;;5071455;28;20415;-70